Weather observations for the past three days for
Chehalis-Centralia Airport
Metric (Imperial)
Date Time (pdt) Wind (kph) Vis. (km) Weather Sky Cond. Temperature (ºC) Relative Humidity Wind Chill (°C) Heat Index (°C) Pressure Precipitation (cm)
Air Dwpt 6 hour altimeter (cm) sea level (mb) 1 hr 3 hr 6 hr
Max. Min.
05 15:55 NE 7 16.09 Overcast OVC028 17 13 77% 76.23 0.0
05 15:35 Calm 16.09 Overcast OVC028 17 12 73% 76.23 0.0
05 15:15 Calm 16.09 Overcast OVC028 17 12 73% 76.25 0.0
05 14:55 Calm 14.48 Overcast OVC027 17 12 73% 76.25 0.0
05 14:35 Vrbl 7 16.09 Overcast OVC026 16 12 77% 76.25 0.0
05 14:15 S 7 16.09 Overcast OVC025 16 12 77% 76.28 0.0
05 13:55 SE 7 16.09 Overcast OVC024 16 12 77% 76.28 0.0
05 13:35 Calm 16.09 Overcast OVC024 15 12 82% 76.28 0.0
05 13:15 Vrbl 6 16.09 Overcast OVC024 15 12 82% 76.28 0.0
05 12:55 Vrbl 6 16.09 Overcast OVC024 15 12 82% 76.28 0.0
05 12:35 SW 7 16.09 Overcast OVC024 15 12 82% 76.28 0.0
05 12:15 SW 7 16.09 Overcast OVC023 15 12 82% 76.28 0.0
05 11:55 Calm 16.09 Overcast OVC023 15 12 82% 76.28 0.0
05 11:35 W 7 16.09 Overcast OVC022 15 11 77% 76.28 0.0
05 11:15 SW 9 16.09 Overcast OVC022 14 12 88% 76.28 0.0
05 10:55 Calm 16.09 Overcast OVC022 14 12 88% 76.28 0.0
05 10:35 Calm 16.09 Overcast OVC022 14 11 82% 76.25 0.0
05 10:15 Calm 16.09 Overcast OVC022 14 11 82% 76.25 0.0
05 09:55 Calm 16.09 Overcast OVC023 14 12 88% 76.25 0.0
05 09:35 Calm 16.09 Overcast OVC023 14 11 82% 76.23 0.0
05 09:15 Calm 16.09 Overcast OVC025 14 12 88% 76.23 0.0
05 08:55 SW 6 16.09 Overcast OVC023 14 11 82% 76.23 0.0
05 08:35 Vrbl 6 16.09 Overcast OVC020 13 11 88% 76.23 0.0
05 08:15 W 6 16.09 Overcast OVC020 13 11 88% 76.2 0.0
05 07:55 Calm 16.09 Overcast OVC019 13 12 94% 76.2 0.0
05 07:35 SW 6 16.09 Overcast OVC019 13 12 94% 76.17 0.0
05 07:15 Calm 16.09 Overcast OVC020 13 12 94% 76.17 0.0
05 06:55 SW 6 16.09 Overcast OVC021 13 12 94% 76.15 0.0
05 06:35 Calm 16.09 Overcast OVC021 13 12 94% 76.15 0.0
05 06:15 Calm 16.09 Overcast OVC023 13 12 94% 76.12 0.0
05 05:55 Calm 16.09 Overcast OVC023 13 12 94% 76.12 0.0
05 05:35 Calm 16.09 Overcast OVC023 13 12 94% 76.12 0.0
05 05:15 Calm 16.09 Overcast OVC022 13 12 94% 76.1 0.0
05 04:55 S 6 16.09 Overcast OVC022 13 12 94% 76.1 0.0
05 04:35 S 6 16.09 Overcast OVC022 13 12 94% 76.1 0.0
05 04:15 Calm 16.09 Overcast OVC022 13 12 94% 76.1 0.0
05 03:55 Calm 16.09 Overcast OVC022 13 12 94% 76.1 0.0
05 03:35 Vrbl 6 16.09 Overcast OVC021 13 12 94% 76.07 0.0
05 03:15 Calm 16.09 Overcast OVC019 13 12 94% 76.07 0.0
05 02:55 Calm 16.09 Overcast OVC019 13 12 94% 76.07 0.0
05 02:35 Calm 16.09 Overcast OVC019 13 12 94% 76.05 0.0
05 02:15 Calm 16.09 Overcast OVC019 13 13 100% 76.05 0.0
05 01:55 W 6 16.09 Overcast OVC019 13 12 94% 76.05 0.0
05 01:35 SW 6 16.09 Overcast OVC019 13 13 100% 76.05 0.0
05 01:15 Calm 16.09 Overcast OVC019 13 12 94% 76.05 0.0
05 00:55 Vrbl 7 16.09 Overcast OVC018 13 12 94% 76.05 0.0
05 00:35 Calm 16.09 Overcast OVC016 13 13 100% 76.02 0.0
05 00:15 Calm 16.09 Overcast OVC016 13 13 100% 76 0.0
04 23:55 S 6 16.09 Overcast OVC017 13 13 100% 76 0.0
04 23:35 Calm 16.09 Overcast OVC018 13 13 100% 76 0.0
04 23:15 Calm 16.09 Overcast OVC019 13 13 100% 75.97 0.0
04 22:55 Vrbl 7 16.09 Mostly Cloudy BKN020 13 13 100% 75.97 0.0
04 22:35 Calm 16.09 Partly Cloudy SCT021 13 13 100% 75.97 0.0
04 22:15 Calm 16.09 A Few Clouds FEW021 13 13 100% 75.97 0.0
04 21:55 Calm 16.09 Fair CLR 13 12 94% 75.95 0.0
04 21:35 Calm 16.09 Fair CLR 14 12 88% 75.95 0.0
04 21:15 Calm 16.09 Fair CLR 14 13 94% 75.92 0.0
04 20:55 Calm 16.09 Fair CLR 14 13 94% 75.9 0.0
04 20:35 Vrbl 9 16.09 Fair CLR 15 13 88% 75.87 0.0
04 20:15 Calm 16.09 Fair CLR 16 13 83% 75.84 0.0
04 19:55 Vrbl 9 16.09 Fair CLR 17 13 77% 75.84 0.0
04 19:35 NW 9 16.09 Fair CLR 19 13 68% 75.82 0.0
04 19:15 Vrbl 7 16.09 Fair CLR 20 12 60% 75.82 0.0
04 18:55 Calm 16.09 Fair CLR 20 11 56% 75.79 0.0
04 18:35 NW 13 G 22 16.09 Fair CLR 21 10 50% 75.79 0.0
04 18:15 Vrbl 9 G 24 16.09 Fair CLR 22 9 44% 75.79 0.0
04 17:55 Vrbl 6 G 20 16.09 Fair CLR 23 9 41% 75.79 0.0
04 17:35 Vrbl 11 G 22 16.09 Fair CLR 23 8 38% 75.79 0.0
04 17:15 NW 20 16.09 Fair CLR 23 8 38% 75.79 0.0
04 16:55 N 19 G 31 16.09 Fair CLR 24 8 36% 25 75.79 0.0
04 16:35 NW 17 G 28 16.09 Fair CLR 24 8 36% 25 75.77 0.0
04 16:15 Vrbl 9 G 22 16.09 Fair CLR 25 10 39% 26 75.77 0.0
04 15:55 NW 15 16.09 Fair CLR 25 9 36% 26 75.79 0.0
04 15:35 N 15 G 24 16.09 Fair CLR 25 10 39% 26 75.77 0.0
04 15:15 Vrbl 7 16.09 Fair CLR 25 12 44% 26 75.79 0.0
04 14:55 NE 9 16.09 Fair CLR 25 12 44% 26 75.82 0.0
04 14:35 Calm 16.09 Fair CLR 25 12 44% 26 75.82 0.0
04 14:15 Vrbl 7 16.09 Fair CLR 25 13 47% 26 75.82 0.0
04 13:55 SW 7 G 19 16.09 Light Drizzle CLR 24 11 44% 25 75.84 0.0
04 13:35 Vrbl 11 16.09 Fair CLR 24 11 44% 25 75.84 0.0
04 13:15 SW 9 G 20 16.09 Fair CLR 23 10 44% 75.87 0.0
04 12:55 SW 13 16.09 Fair CLR 23 11 47% 75.87 0.0
04 12:35 SW 15 16.09 Fair CLR 22 12 53% 75.87 0.0
04 12:15 SW 13 16.09 Fair CLR 22 11 50% 75.9 0.0
04 11:55 Vrbl 11 G 20 16.09 Fair CLR 21 11 53% 75.9 0.0
04 11:35 SW 11 16.09 Fair CLR 20 11 56% 75.92 0.0
04 11:15 S 13 16.09 Fair CLR 20 12 60% 75.92 0.0
04 10:55 Vrbl 11 16.09 Fair CLR 19 12 64% 75.92 0.0
04 10:35 SW 9 16.09 Fair CLR 18 13 73% 75.92 0.0
04 10:15 SW 13 16.09 Light Drizzle CLR 17 13 77% 75.92 0.0
04 09:55 S 13 16.09 Fair CLR 17 13 77% 75.92 0.0
04 09:35 S 13 16.09 Fair CLR 16 13 83% 75.92 0.0
04 09:15 S 9 16.09 Fair CLR 16 13 83% 75.9 0.0
04 08:55 SW 7 16.09 Fair CLR 15 13 88% 75.9 0.0
04 08:35 S 9 16.09 Fair CLR 15 13 88% 75.9 0.0
04 08:15 Calm 16.09 Fair CLR 14 13 94% 75.9 0.0
04 07:55 Vrbl 6 16.09 Fair CLR 13 13 100% 75.87 0.0
04 07:35 Calm 16.09 Fair CLR 12 12 100% 75.87 0.0
04 07:15 Calm 16.09 Fair CLR 11 11 100% 75.84 0.0
04 06:55 Calm 16.09 Fair CLR 10 10 100% 75.82 0.0
04 06:35 Calm 16.09 Fair CLR 10 10 100% 75.79 0.0
04 06:15 Calm 16.09 Light Drizzle CLR 10 10 100% 75.79 0.0
04 05:55 Calm 16.09 Light Drizzle CLR 9 9 100% 75.77 0.0
04 05:35 SW 6 16.09 NULL NULL 9 9 100% 75.77 0.0
04 05:15 Calm 16.09 NULL NULL 10 10 100% 75.77 0.0
04 04:55 Calm 16.09 Fair CLR 10 10 100% 75.74 0.0
04 04:35 Calm 16.09 Fair CLR 10 10 100% 75.74 0.0
04 04:15 Calm 16.09 Fair CLR 10 10 100% 75.72 0.0
04 03:55 Calm 16.09 Fair CLR 11 11 100% 75.72 0.0
04 03:35 Calm 16.09 Fair CLR 11 11 100% 75.72 0.0
04 03:15 Calm 16.09 Fair CLR 11 11 100% 75.72 0.0
04 02:55 Calm 16.09 Fair CLR 11 11 100% 75.72 0.0
04 02:35 Calm 16.09 Fair CLR 13 13 100% 75.72 0.0
04 02:15 Calm 16.09 Fair CLR 12 12 100% 75.72 0.0
04 01:55 Calm 16.09 Fair CLR 12 12 100% 75.72 0.0
04 01:35 Calm 16.09 Fair CLR 13 13 100% 75.72 0.0
04 01:15 Calm 16.09 Fair CLR 13 13 100% 75.69 0.0
04 00:55 Calm 16.09 Fair CLR 14 14 100% 75.69 0.0
04 00:35 Calm 16.09 Fair CLR 14 13 94% 75.69 0.0
04 00:15 Calm 16.09 Fair CLR 15 13 88% 75.69 0.0
03 23:55 Calm 16.09 Fair CLR 15 13 88% 75.69 0.0
03 23:35 Calm 16.09 Fair CLR 16 12 77% 75.69 0.0
03 23:15 Calm 16.09 Fair CLR 17 13 77% 75.69 0.0
03 22:55 Calm 16.09 Fair CLR 18 13 73% 75.69 0.0
03 22:35 NE 6 16.09 Fair CLR 19 11 60% 75.69 0.0
03 22:15 NE 7 16.09 Fair CLR 19 12 64% 75.69 0.0
03 21:55 NE 7 16.09 Fair CLR 20 10 53% 75.69 0.0
03 21:35 NE 7 16.09 Fair CLR 20 10 53% 75.67 0.0
03 21:15 Calm 16.09 Fair CLR 21 10 50% 75.67 0.0
03 20:55 Calm 16.09 Fair CLR 21 11 53% 75.64 0.0
03 20:35 N 6 16.09 Fair CLR 23 10 44% 75.62 0.0
03 20:15 Calm 16.09 Fair CLR 24 10 41% 25 75.62 0.0
03 19:55 Calm 16.09 Fair CLR 25 9 36% 26 75.62 0.0
03 19:35 Calm 16.09 Fair CLR 26 10 37% 26 75.62 0.0
03 19:15 Calm 16.09 Fair CLR 26 9 34% 26 75.62 0.0
03 18:55 Calm 16.09 Fair CLR 27 12 39% 27 75.62 0.0
03 18:35 Vrbl 6 16.09 Fair CLR 28 9 30% 27 75.62 0.0
03 18:15 N 7 16.09 Fair CLR 28 8 28% 27 75.64 0.0
03 17:55 N 15 16.09 Fair CLR 29 7 25% 28 75.64 0.0
03 17:35 N 19 16.09 Fair CLR 29 7 25% 28 75.67 0.0
03 17:15 NE 17 16.09 Fair CLR 29 9 29% 28 75.67 0.0
03 16:55 NE 17 16.09 Fair CLR 29 10 31% 28 75.69 0.0
03 16:35 NE 15 16.09 Fair CLR 29 9 29% 28 75.72 0.0
03 16:15 NE 17 16.09 Fair CLR 29 10 31% 28 75.72 0.0
03 15:55 N 13 16.09 Fair CLR 29 10 31% 28 75.74 0.0
03 15:35 Vrbl 7 16.09 Fair CLR 29 11 33% 28 75.77 0.0
03 15:15 Vrbl 6 16.09 Fair CLR 28 12 37% 27 75.79 0.0
03 14:55 N 13 G 24 16.09 Fair CLR 28 11 35% 27 75.79 0.0
03 14:35 N 13 16.09 Fair CLR 28 11 35% 27 75.82 0.0
03 14:15 NW 11 16.09 Fair CLR 28 11 35% 27 75.82 0.0
03 13:55 Vrbl 11 16.09 Fair CLR 27 12 39% 27 75.84 0.0
03 13:35 Vrbl 9 G 20 16.09 Fair CLR 27 11 37% 27 75.87 0.0
03 13:15 Vrbl 9 16.09 Fair CLR 27 12 39% 27 75.87 0.0
03 12:55 N 13 16.09 Fair CLR 26 12 42% 26 75.9 0.0
03 12:35 NE 17 16.09 Fair CLR 26 11 39% 26 75.92 0.0
03 12:15 Vrbl 9 G 20 16.09 Fair CLR 25 11 42% 26 75.95 0.0
03 11:55 N 11 G 22 16.09 Light Drizzle CLR 25 11 42% 26 75.95 0.0
03 11:35 NE 19 16.09 Fair CLR 24 12 47% 25 75.97 0.0
03 11:15 N 19 16.09 Fair CLR 24 11 44% 25 75.97 0.0
03 10:55 N 13 16.09 Fair CLR 23 12 50% 75.97 0.0
03 10:35 Vrbl 6 G 24 16.09 Fair CLR 22 12 53% 76 0.0
03 10:15 N 9 16.09 Fair CLR 22 13 57% 76 0.0
03 09:55 Calm 16.09 Fair CLR 21 12 57% 76 0.0
03 09:35 Calm 16.09 Fair CLR 19 13 68% 76.02 0.0
03 09:15 Calm 16.09 Fair CLR 18 12 68% 76.05 0.0
03 08:55 Calm 16.09 Fair CLR 16 12 77% 76.05 0.0
03 08:35 Calm 16.09 Fair CLR 15 12 82% 76.05 0.0
03 08:15 Calm 16.09 Fair CLR 14 12 88% 76.05 0.0
03 07:55 SW 7 16.09 Fair CLR 12 12 100% 76.05 0.0
03 07:35 S 9 16.09 Fair CLR 12 12 100% 76.05 0.0
03 07:15 Calm 16.09 Fair CLR 10 10 100% 76.02 0.0
03 06:55 Calm 16.09 Fair CLR 10 10 100% 76.02 0.0
03 06:35 Calm 16.09 Fair CLR 10 10 100% 76.02 0.0
03 06:15 Calm 16.09 Fair CLR 9 9 100% 76.02 0.0
03 05:55 Calm 16.09 Fair CLR 9 9 100% 76.02 0.0
03 05:35 Calm 16.09 Fair CLR 10 10 100% 76.02 0.0
03 05:15 Calm 16.09 Fair CLR 9 9 100% 76.02 0.0
03 04:55 Calm 16.09 Fair CLR 10 10 100% 76.02 0.0
03 04:35 Calm 16.09 Fair CLR 10 10 100% 76.02 0.0
03 04:15 Calm 16.09 Fair CLR 10 10 100% 76.05 0.0
03 03:55 Calm 16.09 Fair CLR 11 11 100% 76.05 0.0
03 03:35 Calm 16.09 Fair CLR 10 10 100% 76.05 0.0
03 03:15 Calm 16.09 Fair CLR 11 11 100% 76.05 0.0
03 02:55 Calm 16.09 Fair CLR 11 11 100% 76.05 0.0
03 02:35 Calm 16.09 Fair CLR 11 11 100% 76.05 0.0
03 02:15 Calm 16.09 Fair CLR 12 12 100% 76.05 0.0
03 01:55 Calm 16.09 Fair CLR 12 12 100% 76.07 0.0
03 01:35 Calm 16.09 Fair CLR 13 12 94% 76.05 0.0
03 01:15 Calm 16.09 Fair CLR 12 12 100% 76.05 0.0
03 00:55 Calm 16.09 Fair CLR 12 12 100% 76.05 0.0
03 00:35 Calm 16.09 Fair CLR 13 12 94% 76.07 0.0
03 00:15 Calm 16.09 Fair CLR 13 12 94% 76.07 0.0
02 23:55 Calm 16.09 Fair CLR 14 12 88% 76.07 0.0
02 23:35 Calm 16.09 Fair CLR 15 11 77% 76.05 0.0
02 23:15 Calm 16.09 Fair CLR 15 12 82% 76.05 0.0
02 22:55 Calm 16.09 Fair CLR 17 11 68% 76.05 0.0
02 22:35 Calm 16.09 Fair CLR 18 9 56% 76.05 0.0
02 22:15 Calm 16.09 Fair CLR 19 9 52% 76.05 0.0
02 21:55 Calm 16.09 Fair CLR 18 9 56% 76.02 0.0
02 21:35 N 6 16.09 Fair CLR 19 10 56% 76 0.0
02 21:15 Vrbl 6 16.09 Fair CLR 19 10 56% 75.97 0.0
02 20:55 N 6 16.09 Fair CLR 19 9 52% 75.95 0.0
02 20:35 Calm 16.09 Fair CLR 20 9 49% 75.92 0.0
02 20:15 N 9 16.09 Fair CLR 21 9 46% 75.92 0.0
02 19:55 Vrbl 11 G 20 16.09 Fair CLR 22 9 44% 75.92 0.0
02 19:15 NE 17 16.09 Fair CLR 23 8 38% 75.9 0.0
02 18:55 N 11 16.09 Fair CLR 24 9 39% 25 75.9 0.0
02 18:35 N 19 16.09 Fair CLR 24 9 39% 25 75.9 0.0
02 18:15 N 7 16.09 Fair CLR 24 10 41% 25 75.9 0.0
02 17:55 N 11 G 22 16.09 Fair CLR 24 10 41% 25 75.92 0.0
02 17:35 N 20 16.09 Fair CLR 24 10 41% 25 75.92 0.0
02 17:15 N 20 16.09 Fair CLR 24 11 44% 25 75.92 0.0
02 16:55 N 9 G 28 16.09 Fair CLR 25 11 42% 26 75.92 0.0
02 16:35 N 20 16.09 Fair CLR 24 11 44% 25 75.95 0.0
02 16:15 Vrbl 7 G 24 16.09 Fair CLR 24 12 47% 25 75.97 0.0
Date Time (pdt) Wind (kph) Vis. (km) Weather Sky Cond. Air Dwpt Max. Min. Relative Humidity Wind Chill (°C) Heat Index (°C) altimeter (cm) sea level (mb) 1 hr 3 hr 6 hr
6 hour
Temperature (ºC) Pressure Precipitation (cm)